This is the latest recevied weather packets stored in our database for station/object LRBC. If no packets are shown the sender has not sent any weather packets the latest 10 day(s).
| Time | Temp. | Humidity | Pressure | Rain* | Wind** | Luminosity | Snow |
|---|---|---|---|---|---|---|---|
| 1788596327 | 28.89° C | 37% | 1015 hPa | - | - | - | - |
| 1788595428 | 28.89° C | 37% | 1015 hPa | - | - | - | - |
| 1788594527 | 27.78° C | 40% | 1014 hPa | - | - | - | - |
| 1788593636 | 27.78° C | 40% | 1014 hPa | - | - | - | - |
| 1788592728 | 27.22° C | 42% | 1015 hPa | - | - | - | - |
| 1788591828 | 27.22° C | 42% | 1015 hPa | - | - | - | - |
| 1788590929 | 27.22° C | 42% | 1015 hPa | - | - | - | - |
| 1788590029 | 27.22° C | 42% | 1015 hPa | - | - | - | - |
| 1788589128 | 25° C | 44% | 1015 hPa | - | - | - | - |
| 1788588229 | 25° C | 44% | 1015 hPa | - | - | - | - |
| 1788585528 | 18.89° C | 68% | 1015 hPa | - | - | - | - |
| 1788560329 | 18.89° C | 64% | 1015 hPa | - | - | - | - |
| 1788559428 | 18.89° C | 64% | 1015 hPa | - | - | - | - |
| 1788556728 | 18.89° C | 64% | 1015 hPa | - | - | - | - |
| 1788552249 | 21.11° C | 57% | 1015 hPa | - | - | - | - |
| 1788548629 | 21.11° C | 57% | 1015 hPa | - | - | - | - |
| 1788547729 | 22.22° C | 53% | 1015 hPa | - | - | - | - |
| 1788542329 | 23.89° C | 47% | 1015 hPa | - | - | - | - |
| 1788534229 | 28.89° C | 33% | 1014 hPa | - | - | - | - |
| 1788532428 | 30° C | 31% | 1014 hPa | - | - | - | - |
| 1788530638 | 28.89° C | 37% | 1014 hPa | - | - | - | - |
| 1788527028 | 27.78° C | 37% | 1015 hPa | - | - | - | - |
| 1788521628 | 27.78° C | 37% | 1016 hPa | - | - | - | - |
| 1788518975 | 27.22° C | 37% | 1016 hPa | - | - | - | - |
| 1788518098 | 27.22° C | 37% | 1016 hPa | - | - | - | - |
* Rain since midnight (hover to see other rain measurements)
** Current wind speed in m/s (hover to see current wind gust speed)